sensor_id;sensor_type;location;lat;lon;timestamp;temperature;humidity
6538;DHT22;3302;52.508;13.454;2023-03-11T00:01:02;1.60;99.90
6538;DHT22;3302;52.508;13.454;2023-03-11T00:03:28;1.60;99.90
6538;DHT22;3302;52.508;13.454;2023-03-11T00:05:54;1.50;99.90
6538;DHT22;3302;52.508;13.454;2023-03-11T00:08:23;1.60;99.90
6538;DHT22;3302;52.508;13.454;2023-03-11T00:10:54;1.50;99.90
6538;DHT22;3302;52.508;13.454;2023-03-11T00:13:20;1.50;99.90
6538;DHT22;3302;52.508;13.454;2023-03-11T00:15:49;1.40;99.90
6538;DHT22;3302;52.508;13.454;2023-03-11T00:18:15;1.20;99.90
6538;DHT22;3302;52.508;13.454;2023-03-11T00:20:43;1.20;99.90
6538;DHT22;3302;52.508;13.454;2023-03-11T00:23:11;1.20;99.90
6538;DHT22;3302;52.508;13.454;2023-03-11T00:25:37;1.30;99.90
6538;DHT22;3302;52.508;13.454;2023-03-11T00:28:04;1.10;99.90
6538;DHT22;3302;52.508;13.454;2023-03-11T00:30:32;1.10;99.90
6538;DHT22;3302;52.508;13.454;2023-03-11T00:32:58;1.00;99.90
6538;DHT22;3302;52.508;13.454;2023-03-11T00:35:27;1.00;99.90
6538;DHT22;3302;52.508;13.454;2023-03-11T00:37:55;0.90;99.90
6538;DHT22;3302;52.508;13.454;2023-03-11T00:40:24;0.90;99.90
6538;DHT22;3302;52.508;13.454;2023-03-11T00:42:49;0.80;99.90
6538;DHT22;3302;52.508;13.454;2023-03-11T00:45:16;0.80;99.90
6538;DHT22;3302;52.508;13.454;2023-03-11T00:47:41;0.90;99.90
6538;DHT22;3302;52.508;13.454;2023-03-11T00:50:08;0.80;99.90
6538;DHT22;3302;52.508;13.454;2023-03-11T00:52:36;0.70;99.90
6538;DHT22;3302;52.508;13.454;2023-03-11T00:55:04;0.70;99.90
6538;DHT22;3302;52.508;13.454;2023-03-11T00:57:30;0.70;99.90
6538;DHT22;3302;52.508;13.454;2023-03-11T00:59:56;0.70;99.90
6538;DHT22;3302;52.508;13.454;2023-03-11T01:02:23;0.60;99.90
6538;DHT22;3302;52.508;13.454;2023-03-11T01:04:53;0.60;99.90
6538;DHT22;3302;52.508;13.454;2023-03-11T01:07:20;0.60;99.90
6538;DHT22;3302;52.508;13.454;2023-03-11T01:09:46;0.60;99.90
6538;DHT22;3302;52.508;13.454;2023-03-11T01:12:12;0.60;99.90
6538;DHT22;3302;52.508;13.454;2023-03-11T01:14:38;0.60;99.90
6538;DHT22;3302;52.508;13.454;2023-03-11T01:17:04;0.60;99.90
6538;DHT22;3302;52.508;13.454;2023-03-11T01:19:30;0.60;99.90
6538;DHT22;3302;52.508;13.454;2023-03-11T01:21:56;0.60;99.90
6538;DHT22;3302;52.508;13.454;2023-03-11T01:24:21;0.60;99.90
6538;DHT22;3302;52.508;13.454;2023-03-11T01:26:47;0.60;99.90
6538;DHT22;3302;52.508;13.454;2023-03-11T01:29:13;0.60;99.90
6538;DHT22;3302;52.508;13.454;2023-03-11T01:31:38;0.60;99.90
6538;DHT22;3302;52.508;13.454;2023-03-11T01:34:04;0.50;99.90
6538;DHT22;3302;52.508;13.454;2023-03-11T01:36:30;0.50;99.90
6538;DHT22;3302;52.508;13.454;2023-03-11T01:38:56;0.50;99.90
6538;DHT22;3302;52.508;13.454;2023-03-11T01:41:22;0.50;99.90
6538;DHT22;3302;52.508;13.454;2023-03-11T01:43:51;0.50;99.90
6538;DHT22;3302;52.508;13.454;2023-03-11T01:49:23;0.50;99.90
6538;DHT22;3302;52.508;13.454;2023-03-11T01:51:51;0.60;99.90
6538;DHT22;3302;52.508;13.454;2023-03-11T01:54:21;0.50;99.90
6538;DHT22;3302;52.508;13.454;2023-03-11T01:56:49;0.50;99.90
6538;DHT22;3302;52.508;13.454;2023-03-11T01:59:20;0.50;99.90
6538;DHT22;3302;52.508;13.454;2023-03-11T02:01:57;0.60;99.90
6538;DHT22;3302;52.508;13.454;2023-03-11T02:04:27;0.60;99.90
6538;DHT22;3302;52.508;13.454;2023-03-11T02:06:55;0.60;99.90
6538;DHT22;3302;52.508;13.454;2023-03-11T02:09:21;0.60;99.90
6538;DHT22;3302;52.508;13.454;2023-03-11T02:11:49;0.60;99.90
6538;DHT22;3302;52.508;13.454;2023-03-11T02:14:16;0.60;99.90
6538;DHT22;3302;52.508;13.454;2023-03-11T02:16:42;0.60;99.90
6538;DHT22;3302;52.508;13.454;2023-03-11T02:19:52;0.60;99.90
6538;DHT22;3302;52.508;13.454;2023-03-11T02:22:20;0.60;99.90
6538;DHT22;3302;52.508;13.454;2023-03-11T02:24:56;0.70;99.90
6538;DHT22;3302;52.508;13.454;2023-03-11T02:27:24;0.70;99.90
6538;DHT22;3302;52.508;13.454;2023-03-11T02:29:51;0.70;99.90
6538;DHT22;3302;52.508;13.454;2023-03-11T02:32:19;0.70;99.90
6538;DHT22;3302;52.508;13.454;2023-03-11T02:34:45;0.70;99.90
6538;DHT22;3302;52.508;13.454;2023-03-11T02:37:13;0.70;99.90
6538;DHT22;3302;52.508;13.454;2023-03-11T02:39:52;0.70;99.90
6538;DHT22;3302;52.508;13.454;2023-03-11T02:42:20;0.70;99.90
6538;DHT22;3302;52.508;13.454;2023-03-11T02:45:09;0.70;99.90
6538;DHT22;3302;52.508;13.454;2023-03-11T02:47:38;0.70;99.90
6538;DHT22;3302;52.508;13.454;2023-03-11T02:50:06;0.70;99.90
6538;DHT22;3302;52.508;13.454;2023-03-11T02:52:34;0.70;99.90
6538;DHT22;3302;52.508;13.454;2023-03-11T02:55:00;0.70;99.90
6538;DHT22;3302;52.508;13.454;2023-03-11T02:57:26;0.70;99.90
6538;DHT22;3302;52.508;13.454;2023-03-11T02:59:52;0.80;99.90
6538;DHT22;3302;52.508;13.454;2023-03-11T03:02:18;0.70;99.90
6538;DHT22;3302;52.508;13.454;2023-03-11T03:04:45;0.70;99.90
6538;DHT22;3302;52.508;13.454;2023-03-11T03:07:10;0.70;99.90
6538;DHT22;3302;52.508;13.454;2023-03-11T03:09:36;0.70;99.90
6538;DHT22;3302;52.508;13.454;2023-03-11T03:12:03;0.70;99.90
6538;DHT22;3302;52.508;13.454;2023-03-11T03:14:29;0.70;99.90
6538;DHT22;3302;52.508;13.454;2023-03-11T03:16:55;0.70;99.90
6538;DHT22;3302;52.508;13.454;2023-03-11T03:19:21;0.70;99.90
6538;DHT22;3302;52.508;13.454;2023-03-11T03:21:46;0.70;99.90
6538;DHT22;3302;52.508;13.454;2023-03-11T03:24:12;0.70;99.90
6538;DHT22;3302;52.508;13.454;2023-03-11T03:26:38;0.70;99.90
6538;DHT22;3302;52.508;13.454;2023-03-11T03:29:04;0.70;99.90
6538;DHT22;3302;52.508;13.454;2023-03-11T03:31:30;0.70;99.90
6538;DHT22;3302;52.508;13.454;2023-03-11T03:33:56;0.70;99.90
6538;DHT22;3302;52.508;13.454;2023-03-11T03:36:22;0.70;99.90
6538;DHT22;3302;52.508;13.454;2023-03-11T03:38:53;0.60;99.90
6538;DHT22;3302;52.508;13.454;2023-03-11T03:41:19;0.60;99.90
6538;DHT22;3302;52.508;13.454;2023-03-11T03:43:45;0.60;99.90
6538;DHT22;3302;52.508;13.454;2023-03-11T03:46:11;0.60;99.90
6538;DHT22;3302;52.508;13.454;2023-03-11T03:48:37;0.60;99.90
6538;DHT22;3302;52.508;13.454;2023-03-11T03:51:07;0.60;99.90
6538;DHT22;3302;52.508;13.454;2023-03-11T03:53:34;0.60;99.90
6538;DHT22;3302;52.508;13.454;2023-03-11T03:56:04;0.60;99.90
6538;DHT22;3302;52.508;13.454;2023-03-11T03:58:31;0.60;99.90
6538;DHT22;3302;52.508;13.454;2023-03-11T04:00:57;0.60;99.90
6538;DHT22;3302;52.508;13.454;2023-03-11T04:03:27;0.60;99.90
6538;DHT22;3302;52.508;13.454;2023-03-11T04:05:53;0.60;99.90
6538;DHT22;3302;52.508;13.454;2023-03-11T04:08:19;0.60;99.90
6538;DHT22;3302;52.508;13.454;2023-03-11T04:10:55;0.60;99.90
6538;DHT22;3302;52.508;13.454;2023-03-11T04:13:21;0.60;99.90
6538;DHT22;3302;52.508;13.454;2023-03-11T04:15:47;0.60;99.90
6538;DHT22;3302;52.508;13.454;2023-03-11T04:18:13;0.60;99.90
6538;DHT22;3302;52.508;13.454;2023-03-11T04:20:39;0.70;99.90
6538;DHT22;3302;52.508;13.454;2023-03-11T04:23:04;0.60;99.90
6538;DHT22;3302;52.508;13.454;2023-03-11T04:25:30;0.70;99.90
6538;DHT22;3302;52.508;13.454;2023-03-11T04:27:56;0.60;99.90
6538;DHT22;3302;52.508;13.454;2023-03-11T04:30:22;0.70;99.90
6538;DHT22;3302;52.508;13.454;2023-03-11T04:32:48;0.70;99.90
6538;DHT22;3302;52.508;13.454;2023-03-11T04:35:13;0.60;99.90
6538;DHT22;3302;52.508;13.454;2023-03-11T04:37:39;0.70;99.90
6538;DHT22;3302;52.508;13.454;2023-03-11T04:40:05;0.70;99.90
6538;DHT22;3302;52.508;13.454;2023-03-11T04:42:31;0.70;99.90
6538;DHT22;3302;52.508;13.454;2023-03-11T04:44:57;0.70;99.90
6538;DHT22;3302;52.508;13.454;2023-03-11T04:47:23;0.70;99.90
6538;DHT22;3302;52.508;13.454;2023-03-11T04:49:49;0.70;99.90
6538;DHT22;3302;52.508;13.454;2023-03-11T04:52:15;0.70;99.90
6538;DHT22;3302;52.508;13.454;2023-03-11T04:54:41;0.70;99.90
6538;DHT22;3302;52.508;13.454;2023-03-11T04:57:07;0.70;99.90
6538;DHT22;3302;52.508;13.454;2023-03-11T04:59:32;0.70;99.90
6538;DHT22;3302;52.508;13.454;2023-03-11T05:01:58;0.70;99.90
6538;DHT22;3302;52.508;13.454;2023-03-11T05:04:24;0.70;99.90
6538;DHT22;3302;52.508;13.454;2023-03-11T05:06:50;0.70;99.90
6538;DHT22;3302;52.508;13.454;2023-03-11T05:09:16;0.70;99.90
6538;DHT22;3302;52.508;13.454;2023-03-11T05:11:41;0.70;99.90
6538;DHT22;3302;52.508;13.454;2023-03-11T05:14:08;0.70;99.90
6538;DHT22;3302;52.508;13.454;2023-03-11T05:16:34;0.70;99.90
6538;DHT22;3302;52.508;13.454;2023-03-11T05:19:00;0.70;99.90
6538;DHT22;3302;52.508;13.454;2023-03-11T05:21:26;0.70;99.90
6538;DHT22;3302;52.508;13.454;2023-03-11T05:23:51;0.70;99.90
6538;DHT22;3302;52.508;13.454;2023-03-11T05:26:17;0.70;99.90
6538;DHT22;3302;52.508;13.454;2023-03-11T05:28:43;0.70;99.90
6538;DHT22;3302;52.508;13.454;2023-03-11T05:31:09;0.70;99.90
6538;DHT22;3302;52.508;13.454;2023-03-11T05:33:35;0.70;99.90
6538;DHT22;3302;52.508;13.454;2023-03-11T05:36:06;0.70;99.90
6538;DHT22;3302;52.508;13.454;2023-03-11T05:38:33;0.70;99.90
6538;DHT22;3302;52.508;13.454;2023-03-11T05:40:59;0.70;99.90
6538;DHT22;3302;52.508;13.454;2023-03-11T05:43:25;0.80;99.90
6538;DHT22;3302;52.508;13.454;2023-03-11T05:45:51;0.70;99.90
6538;DHT22;3302;52.508;13.454;2023-03-11T05:48:16;0.80;99.90
6538;DHT22;3302;52.508;13.454;2023-03-11T05:50:42;0.70;99.90
6538;DHT22;3302;52.508;13.454;2023-03-11T05:53:08;0.80;99.90
6538;DHT22;3302;52.508;13.454;2023-03-11T05:55:34;0.70;99.90
6538;DHT22;3302;52.508;13.454;2023-03-11T05:58:00;0.70;99.90
6538;DHT22;3302;52.508;13.454;2023-03-11T06:00:26;0.80;99.90
6538;DHT22;3302;52.508;13.454;2023-03-11T06:02:54;0.80;99.90
6538;DHT22;3302;52.508;13.454;2023-03-11T06:05:20;0.80;99.90
6538;DHT22;3302;52.508;13.454;2023-03-11T06:07:45;0.80;99.90
6538;DHT22;3302;52.508;13.454;2023-03-11T06:10:12;0.80;99.90
6538;DHT22;3302;52.508;13.454;2023-03-11T06:12:38;0.80;99.90
6538;DHT22;3302;52.508;13.454;2023-03-11T06:15:05;0.80;99.90
6538;DHT22;3302;52.508;13.454;2023-03-11T06:17:31;0.80;99.90
6538;DHT22;3302;52.508;13.454;2023-03-11T06:19:57;0.70;99.90
6538;DHT22;3302;52.508;13.454;2023-03-11T06:22:23;0.70;99.90
6538;DHT22;3302;52.508;13.454;2023-03-11T06:24:49;0.60;99.90
6538;DHT22;3302;52.508;13.454;2023-03-11T06:27:15;0.60;99.90
6538;DHT22;3302;52.508;13.454;2023-03-11T06:29:40;0.60;99.90
6538;DHT22;3302;52.508;13.454;2023-03-11T06:32:06;0.70;99.90
6538;DHT22;3302;52.508;13.454;2023-03-11T06:34:32;0.70;99.90
6538;DHT22;3302;52.508;13.454;2023-03-11T06:36:58;0.70;99.90
6538;DHT22;3302;52.508;13.454;2023-03-11T06:39:24;0.80;99.90
6538;DHT22;3302;52.508;13.454;2023-03-11T06:41:50;0.80;99.90
6538;DHT22;3302;52.508;13.454;2023-03-11T06:44:16;0.80;99.90
6538;DHT22;3302;52.508;13.454;2023-03-11T06:46:42;0.80;99.90
6538;DHT22;3302;52.508;13.454;2023-03-11T06:49:08;0.80;99.90
6538;DHT22;3302;52.508;13.454;2023-03-11T06:51:33;0.80;99.90
6538;DHT22;3302;52.508;13.454;2023-03-11T06:53:59;0.80;99.90
6538;DHT22;3302;52.508;13.454;2023-03-11T06:56:25;0.80;99.90
6538;DHT22;3302;52.508;13.454;2023-03-11T06:58:52;0.80;99.90
6538;DHT22;3302;52.508;13.454;2023-03-11T07:01:23;0.80;99.90
6538;DHT22;3302;52.508;13.454;2023-03-11T07:03:50;0.90;99.90
6538;DHT22;3302;52.508;13.454;2023-03-11T07:06:19;0.80;99.90
6538;DHT22;3302;52.508;13.454;2023-03-11T07:08:50;0.80;99.90
6538;DHT22;3302;52.508;13.454;2023-03-11T07:11:18;0.80;99.90
6538;DHT22;3302;52.508;13.454;2023-03-11T07:13:45;0.80;99.90
6538;DHT22;3302;52.508;13.454;2023-03-11T07:16:14;0.80;99.90
6538;DHT22;3302;52.508;13.454;2023-03-11T07:18:40;0.80;99.90
6538;DHT22;3302;52.508;13.454;2023-03-11T07:21:07;0.90;99.90
6538;DHT22;3302;52.508;13.454;2023-03-11T07:23:34;0.90;99.90
6538;DHT22;3302;52.508;13.454;2023-03-11T07:26:00;0.80;99.90
6538;DHT22;3302;52.508;13.454;2023-03-11T07:28:27;0.90;99.90
6538;DHT22;3302;52.508;13.454;2023-03-11T07:30:53;0.90;99.90
6538;DHT22;3302;52.508;13.454;2023-03-11T07:33:21;0.80;99.90
6538;DHT22;3302;52.508;13.454;2023-03-11T07:35:49;0.90;99.90
6538;DHT22;3302;52.508;13.454;2023-03-11T07:38:16;0.90;99.90
6538;DHT22;3302;52.508;13.454;2023-03-11T07:40:43;0.80;99.90
6538;DHT22;3302;52.508;13.454;2023-03-11T07:43:09;0.90;99.90
6538;DHT22;3302;52.508;13.454;2023-03-11T07:45:35;0.90;99.90
6538;DHT22;3302;52.508;13.454;2023-03-11T07:48:01;0.90;99.90
6538;DHT22;3302;52.508;13.454;2023-03-11T07:50:27;0.90;99.90
6538;DHT22;3302;52.508;13.454;2023-03-11T07:52:52;0.90;99.90
6538;DHT22;3302;52.508;13.454;2023-03-11T07:55:18;0.90;99.90
6538;DHT22;3302;52.508;13.454;2023-03-11T07:57:46;1.10;99.90
6538;DHT22;3302;52.508;13.454;2023-03-11T08:00:14;1.10;99.90
6538;DHT22;3302;52.508;13.454;2023-03-11T08:02:40;1.20;99.90
6538;DHT22;3302;52.508;13.454;2023-03-11T08:05:06;1.00;99.90
6538;DHT22;3302;52.508;13.454;2023-03-11T08:07:32;1.20;99.90
6538;DHT22;3302;52.508;13.454;2023-03-11T08:09:58;1.10;99.90
6538;DHT22;3302;52.508;13.454;2023-03-11T08:12:24;1.10;99.90
6538;DHT22;3302;52.508;13.454;2023-03-11T08:14:49;1.00;99.90
6538;DHT22;3302;52.508;13.454;2023-03-11T08:17:16;1.00;99.90
6538;DHT22;3302;52.508;13.454;2023-03-11T08:19:41;1.10;99.90
6538;DHT22;3302;52.508;13.454;2023-03-11T08:22:07;1.10;99.90
6538;DHT22;3302;52.508;13.454;2023-03-11T08:24:33;1.10;99.90
6538;DHT22;3302;52.508;13.454;2023-03-11T08:27:00;1.10;99.90
6538;DHT22;3302;52.508;13.454;2023-03-11T08:29:26;1.20;99.90
6538;DHT22;3302;52.508;13.454;2023-03-11T08:31:52;1.20;99.90
6538;DHT22;3302;52.508;13.454;2023-03-11T08:34:18;1.20;99.90
6538;DHT22;3302;52.508;13.454;2023-03-11T08:36:45;1.30;99.90
6538;DHT22;3302;52.508;13.454;2023-03-11T08:39:11;1.30;99.90
6538;DHT22;3302;52.508;13.454;2023-03-11T08:41:37;1.40;99.90
6538;DHT22;3302;52.508;13.454;2023-03-11T08:44:03;1.40;99.90
6538;DHT22;3302;52.508;13.454;2023-03-11T08:46:34;1.40;99.90
6538;DHT22;3302;52.508;13.454;2023-03-11T08:49:01;1.50;99.90
6538;DHT22;3302;52.508;13.454;2023-03-11T08:51:29;1.70;99.90
6538;DHT22;3302;52.508;13.454;2023-03-11T08:53:55;1.60;99.90
6538;DHT22;3302;52.508;13.454;2023-03-11T08:56:21;1.60;99.90
6538;DHT22;3302;52.508;13.454;2023-03-11T08:58:47;1.60;99.90
6538;DHT22;3302;52.508;13.454;2023-03-11T09:01:13;1.60;99.90
6538;DHT22;3302;52.508;13.454;2023-03-11T09:03:39;1.60;99.90
6538;DHT22;3302;52.508;13.454;2023-03-11T09:06:08;1.70;99.90
6538;DHT22;3302;52.508;13.454;2023-03-11T09:08:34;1.60;99.90
6538;DHT22;3302;52.508;13.454;2023-03-11T09:11:00;1.60;99.90
6538;DHT22;3302;52.508;13.454;2023-03-11T09:13:26;1.60;99.90
6538;DHT22;3302;52.508;13.454;2023-03-11T09:15:53;1.70;99.90
6538;DHT22;3302;52.508;13.454;2023-03-11T09:18:19;1.70;99.90
6538;DHT22;3302;52.508;13.454;2023-03-11T09:20:45;1.80;99.90
6538;DHT22;3302;52.508;13.454;2023-03-11T09:23:14;1.70;99.90
6538;DHT22;3302;52.508;13.454;2023-03-11T09:25:40;1.70;99.90
6538;DHT22;3302;52.508;13.454;2023-03-11T09:28:06;1.70;99.90
6538;DHT22;3302;52.508;13.454;2023-03-11T09:30:32;1.80;99.90
6538;DHT22;3302;52.508;13.454;2023-03-11T09:32:58;1.80;99.90
6538;DHT22;3302;52.508;13.454;2023-03-11T09:35:24;1.80;99.90
6538;DHT22;3302;52.508;13.454;2023-03-11T09:37:49;1.70;99.90
6538;DHT22;3302;52.508;13.454;2023-03-11T09:40:20;1.80;99.90
6538;DHT22;3302;52.508;13.454;2023-03-11T09:45:30;1.80;99.90
6538;DHT22;3302;52.508;13.454;2023-03-11T09:50:37;1.80;99.90
6538;DHT22;3302;52.508;13.454;2023-03-11T09:53:11;1.70;99.90
6538;DHT22;3302;52.508;13.454;2023-03-11T09:55:47;1.70;99.90
6538;DHT22;3302;52.508;13.454;2023-03-11T10:01:32;2.00;99.90
6538;DHT22;3302;52.508;13.454;2023-03-11T10:04:18;1.70;99.90
6538;DHT22;3302;52.508;13.454;2023-03-11T10:06:47;1.80;99.90
6538;DHT22;3302;52.508;13.454;2023-03-11T10:14:38;2.00;99.90
6538;DHT22;3302;52.508;13.454;2023-03-11T10:22:30;2.10;99.90
6538;DHT22;3302;52.508;13.454;2023-03-11T10:27:34;2.10;99.90
6538;DHT22;3302;52.508;13.454;2023-03-11T10:35:45;2.00;99.90
6538;DHT22;3302;52.508;13.454;2023-03-11T10:38:22;2.10;99.90
6538;DHT22;3302;52.508;13.454;2023-03-11T10:40:54;2.20;99.90
6538;DHT22;3302;52.508;13.454;2023-03-11T10:43:45;2.20;99.90
6538;DHT22;3302;52.508;13.454;2023-03-11T10:46:19;2.10;99.90
6538;DHT22;3302;52.508;13.454;2023-03-11T10:48:46;2.20;99.90
6538;DHT22;3302;52.508;13.454;2023-03-11T10:51:20;2.00;99.90
6538;DHT22;3302;52.508;13.454;2023-03-11T10:54:05;2.00;99.90
6538;DHT22;3302;52.508;13.454;2023-03-11T10:56:36;2.00;99.90
6538;DHT22;3302;52.508;13.454;2023-03-11T10:59:04;2.10;99.90
6538;DHT22;3302;52.508;13.454;2023-03-11T11:01:30;1.90;99.90
6538;DHT22;3302;52.508;13.454;2023-03-11T11:03:58;2.10;99.90
6538;DHT22;3302;52.508;13.454;2023-03-11T11:06:29;2.20;99.90
6538;DHT22;3302;52.508;13.454;2023-03-11T11:09:21;2.20;99.90
6538;DHT22;3302;52.508;13.454;2023-03-11T11:14:25;2.20;99.90
6538;DHT22;3302;52.508;13.454;2023-03-11T11:16:51;2.10;99.90
6538;DHT22;3302;52.508;13.454;2023-03-11T11:19:17;2.00;99.90
6538;DHT22;3302;52.508;13.454;2023-03-11T11:21:48;2.00;99.90
6538;DHT22;3302;52.508;13.454;2023-03-11T11:24:24;2.10;99.90
6538;DHT22;3302;52.508;13.454;2023-03-11T11:29:45;2.00;99.90
6538;DHT22;3302;52.508;13.454;2023-03-11T11:32:16;2.20;99.90
6538;DHT22;3302;52.508;13.454;2023-03-11T11:34:53;2.30;99.90
6538;DHT22;3302;52.508;13.454;2023-03-11T11:37:20;2.60;99.90
6538;DHT22;3302;52.508;13.454;2023-03-11T11:39:53;2.90;99.90
6538;DHT22;3302;52.508;13.454;2023-03-11T11:42:22;2.70;99.90
6538;DHT22;3302;52.508;13.454;2023-03-11T11:44:54;2.50;99.90
6538;DHT22;3302;52.508;13.454;2023-03-11T11:47:29;2.60;99.90
6538;DHT22;3302;52.508;13.454;2023-03-11T11:50:00;2.50;99.90
6538;DHT22;3302;52.508;13.454;2023-03-11T11:52:48;2.40;99.90
6538;DHT22;3302;52.508;13.454;2023-03-11T11:55:27;2.40;99.90
6538;DHT22;3302;52.508;13.454;2023-03-11T11:57:54;2.30;99.90
6538;DHT22;3302;52.508;13.454;2023-03-11T12:00:29;2.30;99.90
6538;DHT22;3302;52.508;13.454;2023-03-11T12:06:41;2.70;99.90
6538;DHT22;3302;52.508;13.454;2023-03-11T12:17:21;2.30;99.90
6538;DHT22;3302;52.508;13.454;2023-03-11T12:19:52;2.60;99.90
6538;DHT22;3302;52.508;13.454;2023-03-11T12:27:50;2.60;99.10
6538;DHT22;3302;52.508;13.454;2023-03-11T12:30:40;2.60;98.70
6538;DHT22;3302;52.508;13.454;2023-03-11T12:35:39;2.40;98.60
6538;DHT22;3302;52.508;13.454;2023-03-11T12:46:14;2.20;98.30
6538;DHT22;3302;52.508;13.454;2023-03-11T12:48:48;2.20;98.50
6538;DHT22;3302;52.508;13.454;2023-03-11T12:54:31;2.30;98.30
6538;DHT22;3302;52.508;13.454;2023-03-11T12:57:24;2.40;98.10
6538;DHT22;3302;52.508;13.454;2023-03-11T13:05:26;2.60;97.10
6538;DHT22;3302;52.508;13.454;2023-03-11T13:08:12;2.30;96.70
6538;DHT22;3302;52.508;13.454;2023-03-11T13:15:50;2.40;97.30
6538;DHT22;3302;52.508;13.454;2023-03-11T13:18:27;2.30;97.20
6538;DHT22;3302;52.508;13.454;2023-03-11T13:21:02;2.40;97.50
6538;DHT22;3302;52.508;13.454;2023-03-11T13:23:34;2.40;97.30
6538;DHT22;3302;52.508;13.454;2023-03-11T13:31:22;2.60;97.70
6538;DHT22;3302;52.508;13.454;2023-03-11T13:33:55;2.80;97.40
6538;DHT22;3302;52.508;13.454;2023-03-11T13:39:13;2.90;95.60
6538;DHT22;3302;52.508;13.454;2023-03-11T13:41:43;3.00;95.20
6538;DHT22;3302;52.508;13.454;2023-03-11T13:46:48;2.70;94.80
6538;DHT22;3302;52.508;13.454;2023-03-11T13:51:52;2.90;96.00
6538;DHT22;3302;52.508;13.454;2023-03-11T13:54:51;2.80;94.90
6538;DHT22;3302;52.508;13.454;2023-03-11T13:57:26;2.80;94.50
6538;DHT22;3302;52.508;13.454;2023-03-11T13:59:54;2.90;94.40
6538;DHT22;3302;52.508;13.454;2023-03-11T14:02:25;2.90;94.00
6538;DHT22;3302;52.508;13.454;2023-03-11T14:05:14;2.70;93.80
6538;DHT22;3302;52.508;13.454;2023-03-11T14:07:40;2.70;94.10
6538;DHT22;3302;52.508;13.454;2023-03-11T14:10:23;2.80;94.30
6538;DHT22;3302;52.508;13.454;2023-03-11T14:12:49;2.70;94.60
6538;DHT22;3302;52.508;13.454;2023-03-11T14:15:24;2.70;94.60
6538;DHT22;3302;52.508;13.454;2023-03-11T14:17:52;2.80;95.00
6538;DHT22;3302;52.508;13.454;2023-03-11T14:20:20;2.60;95.20
6538;DHT22;3302;52.508;13.454;2023-03-11T14:22:51;2.60;95.20
6538;DHT22;3302;52.508;13.454;2023-03-11T14:25:28;2.70;95.20
6538;DHT22;3302;52.508;13.454;2023-03-11T14:27:56;2.60;95.40
6538;DHT22;3302;52.508;13.454;2023-03-11T14:30:32;2.50;95.50
6538;DHT22;3302;52.508;13.454;2023-03-11T14:33:17;2.60;95.00
6538;DHT22;3302;52.508;13.454;2023-03-11T14:35:55;2.50;94.50
6538;DHT22;3302;52.508;13.454;2023-03-11T14:38:27;2.40;94.30
6538;DHT22;3302;52.508;13.454;2023-03-11T14:40:56;2.40;94.60
6538;DHT22;3302;52.508;13.454;2023-03-11T14:43:22;2.60;94.50
6538;DHT22;3302;52.508;13.454;2023-03-11T14:45:50;2.80;94.30
6538;DHT22;3302;52.508;13.454;2023-03-11T14:48:38;2.70;94.00
6538;DHT22;3302;52.508;13.454;2023-03-11T14:51:12;2.40;93.70
6538;DHT22;3302;52.508;13.454;2023-03-11T14:53:56;2.60;94.80
6538;DHT22;3302;52.508;13.454;2023-03-11T14:56:24;2.60;94.70
6538;DHT22;3302;52.508;13.454;2023-03-11T14:59:04;2.50;94.60
6538;DHT22;3302;52.508;13.454;2023-03-11T15:01:39;2.60;94.10
6538;DHT22;3302;52.508;13.454;2023-03-11T15:04:48;2.60;94.40
6538;DHT22;3302;52.508;13.454;2023-03-11T15:06:58;2.60;94.00
6538;DHT22;3302;52.508;13.454;2023-03-11T15:09:25;2.70;93.70
6538;DHT22;3302;52.508;13.454;2023-03-11T15:11:54;2.70;93.30
6538;DHT22;3302;52.508;13.454;2023-03-11T15:16:55;2.50;92.30
6538;DHT22;3302;52.508;13.454;2023-03-11T15:19:32;2.50;91.70
6538;DHT22;3302;52.508;13.454;2023-03-11T15:24:53;2.80;91.70
6538;DHT22;3302;52.508;13.454;2023-03-11T15:29:53;3.10;91.00
6538;DHT22;3302;52.508;13.454;2023-03-11T15:35:00;3.00;88.40
6538;DHT22;3302;52.508;13.454;2023-03-11T15:37:29;3.10;89.10
6538;DHT22;3302;52.508;13.454;2023-03-11T15:39:57;3.00;88.70
6538;DHT22;3302;52.508;13.454;2023-03-11T15:42:34;2.90;88.50
6538;DHT22;3302;52.508;13.454;2023-03-11T15:45:09;2.90;89.30
6538;DHT22;3302;52.508;13.454;2023-03-11T15:47:37;2.80;89.60
6538;DHT22;3302;52.508;13.454;2023-03-11T15:50:24;2.70;89.80
6538;DHT22;3302;52.508;13.454;2023-03-11T15:52:55;2.70;90.10
6538;DHT22;3302;52.508;13.454;2023-03-11T15:55:23;2.70;90.00
6538;DHT22;3302;52.508;13.454;2023-03-11T15:57:51;2.70;90.30
6538;DHT22;3302;52.508;13.454;2023-03-11T16:00:21;2.80;90.60
6538;DHT22;3302;52.508;13.454;2023-03-11T16:02:49;2.80;90.40
6538;DHT22;3302;52.508;13.454;2023-03-11T16:05:18;2.80;90.50
6538;DHT22;3302;52.508;13.454;2023-03-11T16:07:44;2.80;90.60
6538;DHT22;3302;52.508;13.454;2023-03-11T16:10:12;2.70;90.60
6538;DHT22;3302;52.508;13.454;2023-03-11T16:12:39;2.70;90.90
6538;DHT22;3302;52.508;13.454;2023-03-11T16:15:29;2.70;90.90
6538;DHT22;3302;52.508;13.454;2023-03-11T16:17:57;2.70;91.10
6538;DHT22;3302;52.508;13.454;2023-03-11T16:20:25;2.70;89.00
6538;DHT22;3302;52.508;13.454;2023-03-11T16:22:56;2.60;85.60
6538;DHT22;3302;52.508;13.454;2023-03-11T16:25:35;2.50;85.10
6538;DHT22;3302;52.508;13.454;2023-03-11T16:28:02;2.50;84.90
6538;DHT22;3302;52.508;13.454;2023-03-11T16:30:30;2.50;85.40
6538;DHT22;3302;52.508;13.454;2023-03-11T16:32:56;2.50;86.50
6538;DHT22;3302;52.508;13.454;2023-03-11T16:35:22;2.40;85.20
6538;DHT22;3302;52.508;13.454;2023-03-11T16:37:48;2.40;85.80
6538;DHT22;3302;52.508;13.454;2023-03-11T16:40:17;2.40;86.20
6538;DHT22;3302;52.508;13.454;2023-03-11T16:42:43;2.40;86.80
6538;DHT22;3302;52.508;13.454;2023-03-11T16:45:11;2.40;87.20
6538;DHT22;3302;52.508;13.454;2023-03-11T16:47:37;2.40;86.30
6538;DHT22;3302;52.508;13.454;2023-03-11T16:50:03;2.40;86.80
6538;DHT22;3302;52.508;13.454;2023-03-11T16:52:29;2.40;87.30
6538;DHT22;3302;52.508;13.454;2023-03-11T16:54:55;2.30;87.00
6538;DHT22;3302;52.508;13.454;2023-03-11T16:57:21;2.30;87.70
6538;DHT22;3302;52.508;13.454;2023-03-11T16:59:47;2.40;88.10
6538;DHT22;3302;52.508;13.454;2023-03-11T17:02:14;2.30;88.10
6538;DHT22;3302;52.508;13.454;2023-03-11T17:04:40;2.40;88.50
6538;DHT22;3302;52.508;13.454;2023-03-11T17:07:06;2.40;88.60
6538;DHT22;3302;52.508;13.454;2023-03-11T17:09:33;2.40;89.20
6538;DHT22;3302;52.508;13.454;2023-03-11T17:12:00;2.30;89.00
6538;DHT22;3302;52.508;13.454;2023-03-11T17:14:26;2.30;89.30
6538;DHT22;3302;52.508;13.454;2023-03-11T17:16:52;2.30;89.90
6538;DHT22;3302;52.508;13.454;2023-03-11T17:19:17;2.30;90.20
6538;DHT22;3302;52.508;13.454;2023-03-11T17:21:43;2.20;90.20
6538;DHT22;3302;52.508;13.454;2023-03-11T17:24:09;2.20;90.60
6538;DHT22;3302;52.508;13.454;2023-03-11T17:26:36;2.20;90.40
6538;DHT22;3302;52.508;13.454;2023-03-11T17:29:02;2.20;90.80
6538;DHT22;3302;52.508;13.454;2023-03-11T17:31:28;2.20;91.10
6538;DHT22;3302;52.508;13.454;2023-03-11T17:33:55;2.20;91.00
6538;DHT22;3302;52.508;13.454;2023-03-11T17:36:24;2.20;91.10
6538;DHT22;3302;52.508;13.454;2023-03-11T17:38:51;2.20;91.20
6538;DHT22;3302;52.508;13.454;2023-03-11T17:41:18;2.20;91.20
6538;DHT22;3302;52.508;13.454;2023-03-11T17:43:44;2.20;91.60
6538;DHT22;3302;52.508;13.454;2023-03-11T17:46:13;2.10;91.60
6538;DHT22;3302;52.508;13.454;2023-03-11T17:48:40;2.10;91.90
6538;DHT22;3302;52.508;13.454;2023-03-11T17:51:08;2.10;92.10
6538;DHT22;3302;52.508;13.454;2023-03-11T17:53:38;2.10;92.20